createdAt,value
2018-10-11T00:22:31.867Z,65.80
2018-10-11T00:25:07.539Z,65.80
2018-10-11T00:27:44.607Z,66.20
2018-10-11T00:30:23.627Z,66.30
2018-10-11T00:32:58.539Z,66.60
2018-10-11T00:35:32.999Z,66.70
2018-10-11T00:38:06.921Z,66.80
2018-10-11T00:40:39.613Z,67.00
2018-10-11T00:43:13.659Z,67.20
2018-10-11T00:45:47.514Z,67.40
2018-10-11T00:48:22.859Z,67.30
2018-10-11T00:50:57.521Z,67.60
2018-10-11T00:53:30.616Z,67.70
2018-10-11T00:56:06.673Z,68.10
2018-10-11T00:58:40.792Z,67.80
2018-10-11T01:01:17.328Z,67.90
2018-10-11T01:03:50.015Z,67.90
2018-10-11T01:06:23.020Z,68.00
2018-10-11T01:08:57.392Z,68.20
2018-10-11T01:11:30.721Z,68.20
2018-10-11T01:14:04.427Z,68.30
2018-10-11T01:16:38.671Z,68.50
2018-10-11T01:19:11.116Z,68.80
2018-10-11T01:21:45.144Z,69.00
2018-10-11T01:24:18.940Z,69.20
2018-10-11T01:44:50.970Z,69.80
2018-10-11T01:47:24.542Z,69.90
2018-10-11T01:49:58.255Z,70.00
2018-10-11T01:52:31.809Z,70.10
2018-10-11T01:55:03.144Z,70.60
2018-10-11T01:57:34.556Z,70.60
2018-10-11T02:00:07.258Z,70.50
2018-10-11T02:02:38.937Z,70.80
2018-10-11T02:05:11.123Z,70.80
2018-10-11T02:07:43.577Z,70.90
2018-10-11T02:10:16.088Z,71.00
2018-10-11T02:12:49.600Z,71.30
2018-10-11T02:15:21.036Z,71.50
2018-10-11T02:17:52.485Z,71.50
2018-10-11T02:20:25.113Z,71.40
2018-10-11T02:22:56.712Z,71.50
2018-10-11T02:25:28.028Z,71.60
2018-10-11T02:27:59.604Z,71.80
2018-10-11T02:30:31.085Z,71.60
2018-10-11T02:33:03.184Z,71.40
2018-10-11T02:35:35.231Z,71.40
2018-10-11T02:38:07.404Z,71.50
2018-10-11T02:40:39.189Z,71.70
2018-10-11T02:43:11.183Z,71.80
2018-10-11T02:45:43.538Z,71.80
2018-10-11T02:48:16.948Z,72.00
2018-10-11T02:50:49.271Z,72.00
2018-10-11T02:53:20.885Z,72.20
2018-10-11T02:55:52.641Z,72.40
2018-10-11T02:58:39.850Z,72.50
2018-10-11T03:01:11.794Z,72.50
2018-10-11T03:03:44.325Z,72.20
2018-10-11T03:06:15.813Z,72.00
2018-10-11T03:08:47.488Z,72.10
2018-10-11T03:11:19.892Z,72.40
2018-10-11T03:13:51.093Z,72.80
2018-10-11T03:16:22.319Z,72.90
2018-10-11T03:18:53.593Z,72.80
2018-10-11T03:21:25.028Z,72.90
2018-10-11T03:23:56.391Z,72.80
2018-10-11T03:26:27.519Z,73.20
2018-10-11T03:28:58.878Z,72.90
2018-10-11T03:31:30.108Z,73.30
2018-10-11T03:34:02.981Z,73.30
2018-10-11T03:36:34.332Z,73.30
2018-10-11T03:39:05.999Z,73.60
2018-10-11T03:41:37.140Z,73.60
2018-10-11T03:44:08.176Z,73.70
2018-10-11T03:46:39.524Z,74.10
2018-10-11T03:49:10.760Z,74.40
2018-10-11T03:51:41.696Z,75.20
2018-10-11T03:54:12.793Z,75.20
2018-10-11T03:56:44.112Z,75.50
2018-10-11T03:59:15.467Z,75.50
2018-10-11T04:01:46.571Z,75.20
2018-10-11T04:04:17.927Z,75.20
2018-10-11T04:06:49.297Z,75.30
2018-10-11T04:09:22.097Z,74.90
2018-10-11T04:11:53.201Z,74.80
2018-10-11T04:14:24.256Z,75.30
2018-10-11T04:16:55.237Z,75.80
2018-10-11T04:19:27.184Z,75.50
2018-10-11T04:21:57.653Z,75.00
2018-10-11T04:24:28.056Z,75.30
2018-10-11T04:26:58.423Z,76.20
2018-10-11T04:29:28.707Z,75.00
2018-10-11T04:31:59.103Z,75.30
2018-10-11T04:34:29.492Z,75.30
2018-10-11T04:36:59.829Z,75.40
2018-10-11T04:39:30.122Z,76.00
2018-10-11T04:42:00.532Z,75.60
2018-10-11T04:44:35.088Z,75.50
2018-10-11T04:47:06.728Z,75.40
2018-10-11T04:49:37.156Z,75.50
2018-10-11T04:52:07.690Z,75.50
2018-10-11T04:54:38.903Z,75.60
2018-10-11T04:57:09.428Z,75.60
2018-10-11T04:59:39.926Z,75.50
2018-10-11T05:02:10.956Z,75.50
2018-10-11T05:04:41.756Z,75.40
2018-10-11T05:07:12.346Z,75.10
2018-10-11T05:09:42.814Z,75.80
2018-10-11T05:12:13.509Z,75.80
2018-10-11T05:14:44.272Z,76.10
2018-10-11T05:17:15.021Z,76.00
2018-10-11T05:19:45.570Z,76.00
2018-10-11T05:22:16.113Z,75.90
2018-10-11T05:24:46.604Z,75.90
2018-10-11T05:27:17.156Z,76.10
2018-10-11T05:29:47.553Z,76.40
2018-10-11T05:32:18.339Z,76.40
2018-10-11T05:34:48.877Z,76.80
2018-10-11T05:37:19.373Z,76.70
2018-10-11T05:39:49.934Z,76.90
2018-10-11T05:42:20.704Z,77.20
2018-10-11T05:44:51.485Z,77.20
2018-10-11T05:47:22.141Z,77.30
2018-10-11T05:49:52.768Z,77.40
2018-10-11T05:52:23.453Z,77.60
2018-10-11T05:54:54.045Z,77.60
2018-10-11T05:57:24.828Z,77.60
2018-10-11T05:59:55.585Z,77.60
2018-10-11T06:02:26.552Z,77.60
2018-10-11T06:04:57.141Z,77.60
2018-10-11T06:07:27.783Z,77.70
2018-10-11T06:09:58.332Z,77.70
2018-10-11T06:12:28.951Z,77.70
2018-10-11T06:14:59.449Z,78.00
2018-10-11T06:17:30.045Z,78.20
2018-10-11T06:20:00.463Z,77.80
2018-10-11T06:22:31.031Z,78.10
2018-10-11T06:25:01.493Z,78.20
2018-10-11T06:27:32.065Z,78.30
2018-10-11T06:30:02.805Z,78.50
2018-10-11T06:32:33.504Z,78.80
2018-10-11T06:35:04.191Z,78.90
2018-10-11T06:37:34.817Z,78.90
2018-10-11T06:40:05.438Z,78.90
2018-10-11T06:42:36.559Z,78.90
2018-10-11T06:45:09.064Z,79.00
2018-10-11T06:47:39.863Z,79.30
2018-10-11T06:50:11.006Z,79.20
2018-10-11T06:52:41.719Z,79.40
2018-10-11T06:55:12.283Z,79.70
2018-10-11T06:57:43.231Z,79.40
2018-10-11T07:00:13.812Z,79.50
2018-10-11T07:02:44.312Z,79.80
2018-10-11T07:05:14.796Z,80.10
2018-10-11T07:07:45.399Z,80.50
2018-10-11T07:10:15.991Z,81.30
2018-10-11T07:12:46.431Z,81.80
2018-10-11T07:15:16.859Z,81.80
2018-10-11T07:17:47.368Z,82.10
2018-10-11T07:20:17.915Z,82.00
2018-10-11T07:22:48.409Z,81.80
2018-10-11T07:25:19.005Z,81.60
2018-10-11T07:27:49.564Z,81.80
2018-10-11T07:30:20.035Z,81.70
2018-10-11T07:32:50.576Z,81.80
2018-10-11T07:35:21.207Z,81.90
2018-10-11T07:37:51.686Z,82.20
2018-10-11T07:40:23.147Z,82.10
2018-10-11T07:42:53.953Z,82.50
2018-10-11T07:45:24.456Z,82.30
2018-10-11T07:47:54.951Z,82.40
2018-10-11T07:50:25.365Z,82.30
2018-10-11T07:52:55.856Z,82.30
2018-10-11T07:55:26.346Z,82.30
2018-10-11T07:57:56.814Z,82.10
2018-10-11T08:00:27.353Z,82.20
2018-10-11T08:02:57.813Z,81.90
2018-10-11T08:05:28.225Z,81.50
2018-10-11T08:07:58.702Z,81.20
2018-10-11T08:10:29.357Z,81.70
2018-10-11T08:12:59.797Z,80.30
2018-10-11T08:15:30.216Z,79.60
2018-10-11T08:18:01.064Z,79.20
2018-10-11T08:20:31.135Z,78.70
2018-10-11T08:23:01.573Z,78.40
2018-10-11T08:25:32.281Z,77.90
2018-10-11T08:28:02.543Z,77.60
2018-10-11T08:30:33.046Z,77.10
2018-10-11T08:33:03.497Z,76.50
2018-10-11T08:35:34.037Z,76.00
2018-10-11T08:38:04.729Z,75.60
2018-10-11T08:40:35.011Z,75.00
2018-10-11T08:43:05.564Z,74.40
2018-10-11T08:45:36.006Z,73.90
2018-10-11T08:48:06.608Z,73.40
2018-10-11T08:50:37.070Z,73.10
2018-10-11T08:53:08.759Z,73.80
2018-10-11T08:55:39.216Z,73.10
2018-10-11T08:58:09.693Z,71.70
2018-10-11T09:00:40.122Z,71.20
2018-10-11T09:03:10.649Z,70.90
2018-10-11T09:05:41.190Z,70.60
2018-10-11T09:08:11.588Z,70.50
2018-10-11T09:10:42.035Z,70.10
2018-10-11T09:13:12.630Z,70.50
2018-10-11T09:15:43.094Z,69.50
2018-10-11T09:18:13.568Z,69.20
2018-10-11T09:20:44.112Z,68.80
2018-10-11T09:23:14.664Z,68.30
2018-10-11T09:25:45.064Z,68.80
2018-10-11T09:28:15.684Z,67.30
2018-10-11T09:30:46.112Z,66.80
2018-10-11T09:33:16.599Z,66.30
2018-10-11T09:35:47.088Z,65.80
2018-10-11T09:38:17.551Z,65.40
2018-10-11T09:40:47.945Z,65.20
2018-10-11T09:43:18.465Z,64.80
2018-10-11T09:45:48.964Z,64.30
2018-10-11T09:48:19.628Z,63.70
2018-10-11T09:50:50.069Z,63.40
2018-10-11T09:53:20.532Z,63.10
2018-10-11T09:55:50.945Z,62.70
2018-10-11T09:58:21.456Z,62.40
2018-10-11T10:00:56.944Z,62.30
2018-10-11T10:03:28.575Z,61.80
2018-10-11T10:05:59.008Z,62.00
2018-10-11T10:08:29.532Z,61.50
2018-10-11T10:10:59.991Z,61.10
2018-10-11T10:13:30.504Z,61.10
2018-10-11T10:16:01.155Z,60.90
2018-10-11T10:18:31.628Z,60.30
2018-10-11T10:21:02.149Z,59.90
2018-10-11T10:23:32.688Z,59.80
2018-10-11T10:26:03.150Z,59.30
2018-10-11T10:28:33.638Z,59.10
2018-10-11T10:31:04.086Z,58.80
2018-10-11T10:33:34.632Z,58.40
2018-10-11T10:36:05.066Z,58.40
2018-10-11T10:38:35.651Z,58.20
2018-10-11T10:41:06.133Z,57.90
2018-10-11T10:43:36.689Z,58.10
2018-10-11T10:46:07.150Z,57.30
2018-10-11T10:48:37.634Z,56.90
2018-10-11T10:51:08.153Z,56.70
2018-10-11T10:53:38.718Z,56.70
2018-10-11T10:56:09.216Z,56.40
2018-10-11T10:58:39.746Z,56.60
2018-10-11T11:01:10.452Z,56.50
2018-10-11T11:03:41.050Z,56.20
2018-10-11T11:06:11.515Z,56.20
2018-10-11T11:08:41.980Z,55.90
2018-10-11T11:11:12.434Z,55.90
2018-10-11T11:13:42.892Z,55.80
2018-10-11T11:16:13.849Z,55.30
2018-10-11T11:18:44.341Z,55.30
2018-10-11T11:21:14.763Z,54.90
2018-10-11T11:23:45.324Z,55.00
2018-10-11T11:26:15.795Z,54.70
2018-10-11T11:28:46.244Z,54.60
2018-10-11T11:31:16.677Z,55.00
2018-10-11T11:33:47.137Z,54.40
2018-10-11T11:36:17.876Z,54.30
2018-10-11T11:38:48.565Z,54.30
2018-10-11T11:41:20.093Z,54.40
2018-10-11T11:43:50.686Z,54.40
2018-10-11T11:46:21.235Z,54.00
2018-10-11T11:48:51.690Z,53.70
2018-10-11T11:51:22.139Z,53.50
2018-10-11T11:53:52.629Z,53.30
2018-10-11T11:56:23.054Z,53.00
2018-10-11T11:58:53.614Z,52.80
2018-10-11T12:01:24.187Z,52.50
2018-10-11T12:03:54.697Z,52.30
2018-10-11T12:06:25.114Z,52.10
2018-10-11T12:08:55.551Z,52.30
2018-10-11T12:11:26.083Z,52.20
2018-10-11T12:13:56.631Z,52.10
2018-10-11T12:16:27.086Z,51.80
2018-10-11T12:18:57.760Z,51.50
2018-10-11T12:21:28.514Z,51.70
2018-10-11T12:23:58.968Z,51.60
2018-10-11T12:26:29.442Z,51.80
2018-10-11T12:28:59.999Z,51.60
2018-10-11T12:31:30.394Z,51.60
2018-10-11T12:34:00.977Z,51.40
2018-10-11T12:40:23.507Z,51.30
2018-10-11T12:42:53.366Z,51.50
2018-10-11T12:45:28.518Z,51.20
2018-10-11T12:47:59.269Z,51.00
2018-10-11T12:50:29.836Z,50.90
2018-10-11T12:53:00.459Z,50.90
2018-10-11T12:55:30.933Z,51.00
2018-10-11T12:58:01.390Z,50.90
2018-10-11T13:00:31.894Z,50.80
2018-10-11T13:03:02.519Z,50.80
2018-10-11T13:05:32.952Z,50.90
2018-10-11T13:08:03.372Z,50.80
2018-10-11T13:10:33.972Z,50.90
2018-10-11T13:13:04.480Z,50.90
2018-10-11T13:15:34.835Z,50.80
2018-10-11T13:18:05.425Z,50.40
2018-10-11T13:20:36.001Z,50.40
2018-10-11T13:23:08.489Z,50.40
2018-10-11T13:25:36.969Z,50.30
2018-10-11T13:28:07.315Z,50.20
2018-10-11T13:30:37.877Z,50.30
2018-10-11T13:33:08.323Z,50.30
2018-10-11T13:35:38.934Z,49.90
2018-10-11T13:38:09.414Z,50.30
2018-10-11T13:40:39.910Z,50.00
2018-10-11T13:43:10.719Z,50.10
2018-10-11T13:45:41.707Z,50.00
2018-10-11T13:48:14.815Z,50.00
2018-10-11T13:50:45.319Z,49.90
2018-10-11T13:53:20.391Z,49.80
2018-10-11T13:55:53.619Z,49.90
2018-10-11T13:58:23.245Z,49.70
2018-10-11T14:00:53.947Z,49.60
2018-10-11T14:03:27.167Z,49.80
2018-10-11T14:05:57.610Z,49.40
2018-10-11T14:08:28.086Z,49.00
2018-10-11T14:10:58.760Z,49.10
2018-10-11T14:13:29.293Z,49.20
2018-10-11T14:15:59.835Z,49.40
2018-10-11T14:18:30.469Z,49.40
2018-10-11T14:21:01.150Z,49.30
2018-10-11T14:23:31.666Z,49.40
2018-10-11T14:26:02.215Z,49.80
2018-10-11T14:28:32.718Z,49.60
2018-10-11T14:31:03.030Z,49.80
2018-10-11T14:33:33.356Z,49.80
2018-10-11T14:36:03.885Z,49.20
2018-10-11T14:38:34.245Z,48.80
2018-10-11T14:41:04.699Z,48.60
2018-10-11T14:43:35.151Z,48.70
2018-10-11T14:46:05.656Z,48.90
2018-10-11T14:48:36.110Z,48.80
2018-10-11T14:51:06.639Z,48.90
2018-10-11T14:53:36.976Z,48.60
2018-10-11T14:56:07.538Z,48.50
2018-10-11T14:58:38.010Z,48.70
2018-10-11T15:01:08.592Z,48.70
2018-10-11T15:03:39.039Z,48.50
2018-10-11T15:06:09.669Z,48.60
2018-10-11T15:08:40.156Z,48.10
2018-10-11T15:11:10.781Z,47.90
2018-10-11T15:13:41.261Z,48.10
2018-10-11T15:16:11.848Z,48.00
2018-10-11T15:18:47.729Z,48.10
2018-10-11T15:21:28.408Z,47.80
2018-10-11T15:23:59.777Z,47.70
2018-10-11T15:26:31.179Z,47.80
2018-10-11T15:29:02.598Z,47.80
2018-10-11T15:31:34.888Z,47.60
2018-10-11T15:34:06.724Z,47.90
2018-10-11T15:36:38.618Z,48.00
2018-10-11T15:39:13.716Z,48.00
2018-10-11T15:41:46.863Z,47.90
2018-10-11T15:44:18.742Z,48.00
2018-10-11T15:46:49.937Z,48.00
2018-10-11T15:49:21.528Z,47.60
2018-10-11T15:51:52.876Z,47.90
2018-10-11T15:54:24.292Z,48.10
2018-10-11T15:56:55.966Z,48.00
2018-10-11T15:59:27.608Z,48.00
2018-10-11T16:01:59.957Z,48.00
2018-10-11T16:04:31.907Z,48.10
2018-10-11T16:07:03.797Z,48.10
2018-10-11T16:09:36.124Z,48.30
2018-10-11T16:12:07.876Z,48.20
2018-10-11T16:14:39.377Z,48.30
2018-10-11T16:17:10.963Z,48.40
2018-10-11T16:19:42.399Z,48.30
2018-10-11T16:22:13.862Z,48.40
2018-10-11T16:24:45.622Z,48.50
2018-10-11T16:27:18.048Z,48.40
2018-10-11T16:29:49.603Z,48.50
2018-10-11T16:32:21.318Z,48.50
2018-10-11T16:34:52.645Z,48.50
2018-10-11T16:37:23.847Z,48.60
2018-10-11T16:39:55.165Z,48.50
2018-10-11T16:42:26.476Z,48.60
2018-10-11T16:44:57.743Z,48.60
2018-10-11T16:47:28.912Z,48.70
2018-10-11T16:50:00.159Z,48.80
2018-10-11T16:52:31.492Z,48.90
2018-10-11T16:55:02.700Z,48.90
2018-10-11T16:57:39.867Z,49.00
2018-10-11T17:00:17.948Z,49.00
2018-10-11T17:03:14.649Z,49.10
2018-10-11T17:06:08.700Z,49.20
2018-10-11T17:08:58.649Z,49.20
2018-10-11T17:11:49.607Z,49.20
2018-10-11T17:14:38.569Z,49.40
2018-10-11T17:17:12.268Z,49.40
2018-10-11T17:19:50.487Z,49.50
2018-10-11T17:22:25.710Z,49.70
2018-10-11T17:25:08.387Z,49.80
2018-10-11T17:30:56.675Z,49.90
2018-10-11T17:33:55.747Z,49.90
2018-10-11T17:36:36.491Z,50.00
2018-10-11T17:39:16.247Z,50.10
2018-10-11T17:41:58.091Z,50.10
2018-10-11T17:44:37.358Z,50.20
2018-10-11T17:47:22.345Z,50.20
2018-10-11T17:50:03.782Z,50.40
2018-10-11T17:52:45.382Z,50.80
2018-10-11T17:55:25.659Z,50.60
2018-10-11T17:58:12.988Z,50.60
2018-10-11T18:00:55.922Z,50.70
2018-10-11T18:03:34.348Z,50.90
2018-10-11T18:06:06.182Z,50.90
2018-10-11T18:08:37.008Z,51.10
2018-10-11T18:11:08.175Z,51.10
2018-10-11T18:13:39.100Z,51.20
2018-10-11T18:16:38.796Z,51.30
2018-10-11T18:22:10.150Z,51.40
2018-10-11T18:24:41.218Z,51.60
2018-10-11T18:27:12.539Z,51.70
2018-10-11T18:29:43.649Z,51.80
2018-10-11T18:32:14.816Z,51.90
2018-10-11T18:34:45.622Z,51.80
2018-10-11T18:37:16.692Z,51.80
2018-10-11T18:39:47.666Z,52.00
2018-10-11T18:42:18.908Z,52.00
2018-10-11T18:44:50.181Z,52.10
2018-10-11T18:47:21.319Z,52.20
2018-10-11T18:49:52.204Z,52.30
2018-10-11T18:52:23.003Z,52.40
2018-10-11T18:54:54.024Z,52.40
2018-10-11T18:57:24.824Z,52.50
2018-10-11T18:59:55.747Z,52.60
2018-10-11T19:02:26.883Z,52.70
2018-10-11T19:04:58.068Z,52.70
2018-10-11T19:07:29.142Z,52.70
2018-10-11T19:10:00.075Z,52.70
2018-10-11T19:12:31.204Z,52.80
2018-10-11T19:15:02.550Z,52.80
2018-10-11T19:17:33.778Z,52.80
2018-10-11T19:20:05.146Z,52.80
2018-10-11T19:22:36.484Z,52.80
2018-10-11T19:25:07.777Z,52.90
2018-10-11T19:27:38.917Z,52.90
2018-10-11T19:30:09.946Z,53.00
2018-10-11T19:32:40.714Z,53.10
2018-10-11T19:35:11.600Z,53.20
2018-10-11T19:37:42.358Z,53.30
2018-10-11T19:40:13.097Z,53.40
2018-10-11T19:42:55.878Z,53.50
2018-10-11T19:45:27.454Z,53.70
2018-10-11T19:47:58.629Z,53.80
2018-10-11T19:50:30.004Z,54.00
2018-10-11T19:53:01.320Z,54.10
2018-10-11T19:55:32.428Z,54.30
2018-10-11T19:58:03.553Z,54.30
2018-10-11T20:00:34.570Z,54.40
2018-10-11T20:03:05.947Z,55.10
